createdAt,value
2023-02-05T00:01:28.216Z,23.33
2023-02-05T00:03:54.886Z,25.17
2023-02-05T00:06:21.889Z,24.67
2023-02-05T00:08:48.768Z,22.47
2023-02-05T00:11:15.433Z,23.37
2023-02-05T00:13:43.173Z,23.67
2023-02-05T00:16:10.849Z,23.30
2023-02-05T00:18:37.738Z,22.63
2023-02-05T00:21:08.058Z,23.97
2023-02-05T00:23:35.993Z,23.13
2023-02-05T00:26:04.415Z,24.13
2023-02-05T00:28:35.352Z,23.20
2023-02-05T00:31:08.608Z,23.70
2023-02-05T00:33:35.880Z,25.47
2023-02-05T00:36:02.824Z,23.07
2023-02-05T00:38:29.769Z,25.30
2023-02-05T00:40:56.430Z,25.20
2023-02-05T00:43:23.146Z,23.20
2023-02-05T00:45:49.829Z,25.60
2023-02-05T00:48:16.664Z,23.90
2023-02-05T00:50:43.416Z,23.07
2023-02-05T00:53:13.882Z,24.43
2023-02-05T00:55:40.573Z,23.47
2023-02-05T00:58:07.425Z,24.50
2023-02-05T01:00:34.559Z,26.20
2023-02-05T01:03:01.829Z,24.37
2023-02-05T01:05:30.580Z,25.07
2023-02-05T01:07:57.556Z,25.57
2023-02-05T01:10:24.305Z,25.87
2023-02-05T01:12:51.154Z,23.73
2023-02-05T01:15:18.266Z,24.37
2023-02-05T01:17:45.464Z,24.27
2023-02-05T01:20:14.321Z,22.37
2023-02-05T01:22:41.346Z,21.73
2023-02-05T01:25:08.906Z,24.20
2023-02-05T01:27:36.378Z,24.03
2023-02-05T01:30:04.669Z,22.10
2023-02-05T01:32:31.453Z,23.13
2023-02-05T01:34:58.150Z,23.43
2023-02-05T01:37:25.182Z,23.33
2023-02-05T01:39:51.878Z,23.67
2023-02-05T01:42:23.131Z,22.93
2023-02-05T01:45:21.493Z,22.87
2023-02-05T01:48:03.261Z,23.40
2023-02-05T01:50:35.214Z,23.43
2023-02-05T01:53:07.156Z,26.87
2023-02-05T01:55:37.733Z,23.73
2023-02-05T01:58:04.540Z,24.57
2023-02-05T02:00:31.339Z,22.70
2023-02-05T02:02:59.385Z,24.17
2023-02-05T02:05:26.112Z,23.50
2023-02-05T02:07:52.869Z,23.43
2023-02-05T02:10:20.057Z,23.13
2023-02-05T02:12:48.712Z,24.80
2023-02-05T02:15:23.987Z,24.90
2023-02-05T02:18:21.096Z,23.20
2023-02-05T02:21:06.710Z,23.30
2023-02-05T02:24:16.821Z,26.23
2023-02-05T02:27:14.850Z,23.50
2023-02-05T02:29:59.933Z,26.87
2023-02-05T02:32:52.188Z,22.73
2023-02-05T02:35:36.858Z,23.73
2023-02-05T02:38:29.116Z,24.50
2023-02-05T02:41:13.108Z,22.53
2023-02-05T02:44:02.908Z,24.10
2023-02-05T02:46:36.321Z,23.90
2023-02-05T02:49:06.845Z,23.23
2023-02-05T02:51:37.876Z,25.43
2023-02-05T02:54:08.048Z,25.33
2023-02-05T02:56:39.261Z,23.80
2023-02-05T02:59:10.717Z,25.40
2023-02-05T03:01:46.945Z,24.27
2023-02-05T03:04:43.242Z,24.43
2023-02-05T03:07:21.471Z,23.20
2023-02-05T03:10:16.338Z,24.60
2023-02-05T03:12:43.796Z,26.07
2023-02-05T03:15:11.620Z,25.13
2023-02-05T03:17:39.902Z,25.00
2023-02-05T03:20:15.160Z,22.10
2023-02-05T03:22:42.096Z,25.90
2023-02-05T03:25:09.252Z,24.00
2023-02-05T03:27:36.493Z,24.73
2023-02-05T03:30:05.461Z,25.27
2023-02-05T03:32:56.966Z,23.20
2023-02-05T03:35:33.897Z,23.00
2023-02-05T03:38:36.597Z,23.97
2023-02-05T03:41:14.654Z,24.77
2023-02-05T03:44:04.792Z,25.17
2023-02-05T03:46:48.343Z,26.07
2023-02-05T03:49:40.728Z,25.57
2023-02-05T03:52:19.998Z,24.60
2023-02-05T03:55:00.316Z,24.67
2023-02-05T03:57:37.593Z,27.40
2023-02-05T04:00:06.072Z,27.30
2023-02-05T04:02:40.862Z,24.83
2023-02-05T04:05:08.988Z,25.50
2023-02-05T04:07:36.113Z,25.93
2023-02-05T04:10:04.152Z,29.13
2023-02-05T04:12:31.184Z,26.10
2023-02-05T04:14:58.098Z,28.43
2023-02-05T04:17:24.768Z,28.20
2023-02-05T04:19:51.707Z,28.50
2023-02-05T04:22:20.015Z,27.33
2023-02-05T04:24:47.674Z,28.20
2023-02-05T04:27:14.934Z,27.40
2023-02-05T04:29:41.630Z,29.43
2023-02-05T04:32:08.326Z,27.50
2023-02-05T04:34:35.060Z,29.30
2023-02-05T04:37:02.384Z,29.90
2023-02-05T04:39:30.334Z,30.93
2023-02-05T04:41:57.013Z,28.90
2023-02-05T04:44:23.674Z,31.13
2023-02-05T04:46:50.415Z,29.90
2023-02-05T04:49:17.088Z,31.37
2023-02-05T04:51:43.740Z,29.90
2023-02-05T04:54:10.408Z,29.37
2023-02-05T04:56:38.073Z,28.47
2023-02-05T04:59:04.895Z,27.97
2023-02-05T05:01:31.674Z,31.67
2023-02-05T05:03:58.382Z,28.47
2023-02-05T05:06:25.049Z,29.43
2023-02-05T05:08:51.747Z,30.60
2023-02-05T05:11:19.604Z,28.87
2023-02-05T05:13:46.483Z,30.30
2023-02-05T05:16:13.192Z,30.43
2023-02-05T05:18:41.806Z,29.20
2023-02-05T05:21:08.790Z,28.27
2023-02-05T05:23:36.377Z,28.57
2023-02-05T05:26:12.044Z,28.37
2023-02-05T05:28:39.189Z,28.00
2023-02-05T05:31:08.704Z,24.10
2023-02-05T05:33:35.658Z,19.77
2023-02-05T05:36:02.370Z,24.60
2023-02-05T05:38:29.119Z,20.53
2023-02-05T05:41:14.382Z,23.17
2023-02-05T05:43:47.017Z,22.97
2023-02-05T05:46:16.292Z,21.77
2023-02-05T05:48:43.002Z,25.77
2023-02-05T05:51:09.672Z,21.40
2023-02-05T05:53:36.317Z,23.60
2023-02-05T05:56:03.120Z,22.57
2023-02-05T05:58:29.798Z,21.87
2023-02-05T06:00:56.470Z,22.10
2023-02-05T06:03:23.965Z,22.20
2023-02-05T06:05:50.724Z,23.07
2023-02-05T06:08:17.545Z,22.30
2023-02-05T06:10:44.354Z,22.70
2023-02-05T06:13:11.189Z,21.43
2023-02-05T06:15:38.329Z,22.80
2023-02-05T06:18:05.214Z,24.20
2023-02-05T06:20:31.875Z,24.73
2023-02-05T06:22:58.537Z,25.73
2023-02-05T06:25:25.252Z,28.00
2023-02-05T06:27:52.025Z,26.43
2023-02-05T06:30:19.060Z,26.83
2023-02-05T06:32:45.744Z,28.30
2023-02-05T06:35:12.395Z,27.30
2023-02-05T06:37:47.046Z,28.27
2023-02-05T06:40:15.690Z,26.87
2023-02-05T06:42:42.830Z,29.07
2023-02-05T06:45:10.322Z,31.07
2023-02-05T06:47:37.640Z,32.37
2023-02-05T06:50:06.229Z,34.07
2023-02-05T06:52:33.000Z,35.57
2023-02-05T06:54:59.715Z,38.10
2023-02-05T06:57:26.383Z,39.40
2023-02-05T06:59:53.052Z,40.30
2023-02-05T07:02:19.799Z,42.70
2023-02-05T07:04:46.505Z,43.50
2023-02-05T07:07:13.614Z,45.97
2023-02-05T07:09:40.312Z,43.00
2023-02-05T07:12:07.296Z,45.13
2023-02-05T07:14:41.235Z,44.20
2023-02-05T07:17:09.045Z,46.17
2023-02-05T07:19:36.982Z,45.33
2023-02-05T07:22:04.957Z,47.70
2023-02-05T07:24:31.827Z,44.90
2023-02-05T07:26:58.527Z,46.70
2023-02-05T07:29:25.319Z,45.80
2023-02-05T07:31:52.548Z,46.10
2023-02-05T07:34:20.650Z,45.90
2023-02-05T07:36:50.653Z,45.73
2023-02-05T07:39:17.616Z,42.00
2023-02-05T07:41:44.550Z,43.90
2023-02-05T07:44:21.024Z,39.20
2023-02-05T07:46:48.653Z,39.17
2023-02-05T07:49:15.846Z,41.67
2023-02-05T07:51:42.550Z,40.40
2023-02-05T07:54:10.562Z,41.40
2023-02-05T07:56:37.277Z,40.80
2023-02-05T07:59:03.968Z,40.70
2023-02-05T08:01:30.664Z,41.37
2023-02-05T08:03:57.561Z,41.73
2023-02-05T08:06:25.361Z,40.80
2023-02-05T08:08:52.234Z,44.20
2023-02-05T08:11:19.320Z,50.90
2023-02-05T08:13:46.570Z,44.77
2023-02-05T08:16:17.469Z,43.73
2023-02-05T08:18:49.330Z,40.60
2023-02-05T08:21:17.159Z,31.97
2023-02-05T08:23:43.901Z,31.30
2023-02-05T08:26:10.648Z,32.47
2023-02-05T08:28:37.307Z,29.40
2023-02-05T08:31:13.498Z,26.27
2023-02-05T08:33:40.229Z,26.17
2023-02-05T08:36:08.849Z,28.83
2023-02-05T08:38:35.680Z,28.83
2023-02-05T08:41:12.235Z,27.10
2023-02-05T08:43:46.953Z,24.87
2023-02-05T08:46:17.531Z,26.30
2023-02-05T08:48:44.274Z,26.03
2023-02-05T08:51:12.814Z,24.80
2023-02-05T08:53:40.238Z,25.07
2023-02-05T08:56:10.351Z,24.07
2023-02-05T08:58:38.632Z,23.53
2023-02-05T09:01:14.875Z,23.93
2023-02-05T09:03:41.840Z,22.67
2023-02-05T09:06:11.085Z,21.83
2023-02-05T09:08:37.924Z,22.03
2023-02-05T09:11:05.825Z,23.40
2023-02-05T09:13:32.987Z,22.97
2023-02-05T09:15:59.730Z,18.67
2023-02-05T09:18:26.413Z,18.33
2023-02-05T09:20:54.397Z,20.20
2023-02-05T09:23:21.669Z,19.37
2023-02-05T09:25:48.993Z,19.33
2023-02-05T09:28:15.845Z,19.37
2023-02-05T09:30:45.538Z,18.93
2023-02-05T09:33:13.189Z,17.00
2023-02-05T09:35:39.935Z,16.37
2023-02-05T09:38:06.893Z,16.10
2023-02-05T09:40:43.156Z,13.53
2023-02-05T09:43:37.675Z,7.60
2023-02-05T09:46:39.612Z,5.90
2023-02-05T09:49:39.074Z,6.57
2023-02-05T09:52:13.288Z,4.83
2023-02-05T09:54:43.958Z,3.47
2023-02-05T09:57:23.677Z,3.60
2023-02-05T09:59:50.431Z,3.63
2023-02-05T10:02:41.836Z,2.30
2023-02-05T10:05:14.247Z,2.10
2023-02-05T10:08:01.860Z,1.70
2023-02-05T10:10:35.319Z,1.50
2023-02-05T10:13:20.922Z,1.73
2023-02-05T10:15:52.745Z,1.70
2023-02-05T10:18:37.626Z,1.47
2023-02-05T10:21:31.226Z,1.00
2023-02-05T10:24:33.449Z,0.83
2023-02-05T10:27:24.379Z,0.90
2023-02-05T10:30:00.155Z,1.03
2023-02-05T10:32:40.654Z,1.03
2023-02-05T10:35:27.011Z,1.60
2023-02-05T10:37:57.989Z,1.70
2023-02-05T10:40:29.403Z,1.53
2023-02-05T10:43:14.256Z,2.30
2023-02-05T10:45:40.961Z,1.40
2023-02-05T10:48:30.824Z,1.30
2023-02-05T10:51:16.229Z,2.40
2023-02-05T10:53:43.314Z,2.33
2023-02-05T10:56:18.970Z,1.60
2023-02-05T10:58:54.194Z,1.20
2023-02-05T11:01:30.195Z,1.50
2023-02-05T11:04:03.250Z,1.70
2023-02-05T11:06:37.825Z,1.40
2023-02-05T11:09:24.611Z,2.60
2023-02-05T11:11:56.469Z,1.90
2023-02-05T11:14:28.331Z,2.40
2023-02-05T11:16:55.107Z,2.43
2023-02-05T11:19:28.876Z,2.60
2023-02-05T11:21:58.647Z,2.77
2023-02-05T11:24:35.998Z,2.77
2023-02-05T11:27:31.893Z,3.50
2023-02-05T11:30:28.618Z,3.63
2023-02-05T11:33:22.708Z,4.73
2023-02-05T11:35:54.741Z,9.20
2023-02-05T11:38:32.360Z,5.03
2023-02-05T11:41:07.706Z,6.23
2023-02-05T11:43:35.523Z,6.50
2023-02-05T11:46:07.077Z,6.93
2023-02-05T11:48:37.166Z,5.80
2023-02-05T11:51:06.338Z,7.77
2023-02-05T11:53:34.443Z,7.60
2023-02-05T11:56:06.630Z,7.17
2023-02-05T11:58:37.612Z,6.50
2023-02-05T12:01:29.022Z,6.30
2023-02-05T12:04:16.722Z,6.43
2023-02-05T12:06:46.218Z,5.60
2023-02-05T12:09:19.916Z,5.20
2023-02-05T12:12:16.702Z,5.80
2023-02-05T12:14:56.836Z,6.30
2023-02-05T12:17:50.622Z,3.73
2023-02-05T12:20:29.182Z,3.37
2023-02-05T12:23:31.670Z,3.03
2023-02-05T12:26:06.906Z,3.30
2023-02-05T12:29:24.954Z,2.77
2023-02-05T12:31:55.607Z,2.03
2023-02-05T12:34:34.323Z,3.20
2023-02-05T12:37:40.669Z,2.63
2023-02-05T12:40:37.171Z,2.93
2023-02-05T12:43:27.388Z,1.70
2023-02-05T12:46:21.481Z,1.70
2023-02-05T12:49:29.627Z,2.43
2023-02-05T12:52:01.911Z,2.80
2023-02-05T12:54:51.836Z,2.20
2023-02-05T12:57:24.473Z,2.50
2023-02-05T12:59:55.172Z,2.07
2023-02-05T13:02:44.360Z,3.00
2023-02-05T13:05:34.570Z,2.77
2023-02-05T13:08:05.961Z,3.63
2023-02-05T13:10:55.828Z,2.80
2023-02-05T13:13:30.310Z,3.77
2023-02-05T13:16:02.966Z,2.57
2023-02-05T13:18:38.045Z,2.60
2023-02-05T13:21:26.647Z,3.33
2023-02-05T13:24:16.349Z,3.80
2023-02-05T13:27:06.092Z,3.80
2023-02-05T13:29:43.992Z,4.13
2023-02-05T13:32:16.382Z,4.40
2023-02-05T13:34:43.636Z,3.90
2023-02-05T13:37:29.605Z,3.50
2023-02-05T13:40:24.517Z,4.17
2023-02-05T13:43:19.133Z,6.53
2023-02-05T13:45:48.617Z,4.43
2023-02-05T13:48:27.277Z,4.57
2023-02-05T13:51:12.607Z,5.07
2023-02-05T13:53:50.637Z,4.13
2023-02-05T13:56:26.340Z,3.60
2023-02-05T13:58:55.574Z,3.43
2023-02-05T14:01:32.986Z,2.60
2023-02-05T14:04:21.325Z,2.47
2023-02-05T14:07:00.072Z,3.00
2023-02-05T14:09:43.334Z,1.93
2023-02-05T14:12:21.009Z,2.27
2023-02-05T14:15:16.824Z,2.00
2023-02-05T14:17:43.469Z,3.13
2023-02-05T14:20:25.438Z,2.00
2023-02-05T14:22:53.065Z,2.03
2023-02-05T14:25:38.672Z,2.83
2023-02-05T14:28:20.336Z,2.53
2023-02-05T14:30:58.437Z,2.27
2023-02-05T14:33:37.822Z,3.33
2023-02-05T14:36:22.832Z,4.37
2023-02-05T14:38:59.226Z,4.70
2023-02-05T14:41:50.639Z,4.43
2023-02-05T14:44:31.438Z,4.20
2023-02-05T14:47:34.584Z,5.20
2023-02-05T14:50:07.983Z,4.67
2023-02-05T14:52:45.154Z,3.20
2023-02-05T14:55:14.783Z,5.30
2023-02-05T14:58:04.643Z,5.30
2023-02-05T15:00:41.738Z,4.27
2023-02-05T15:03:32.156Z,4.87
2023-02-05T15:06:09.065Z,3.53
2023-02-05T15:08:35.678Z,6.03
2023-02-05T15:11:37.225Z,3.53
2023-02-05T15:14:32.889Z,3.67
2023-02-05T15:17:05.616Z,4.90
2023-02-05T15:19:34.270Z,3.10
2023-02-05T15:22:02.698Z,2.70
2023-02-05T15:24:30.203Z,4.53
2023-02-05T15:27:15.709Z,3.63
2023-02-05T15:29:46.594Z,2.93
2023-02-05T15:32:46.514Z,3.27
2023-02-05T15:35:18.681Z,2.70
2023-02-05T15:37:55.655Z,4.80
2023-02-05T15:40:26.405Z,3.03
2023-02-05T15:43:00.929Z,3.73
2023-02-05T15:45:39.657Z,2.70
2023-02-05T15:48:13.486Z,3.03
2023-02-05T15:50:47.364Z,3.27
2023-02-05T15:53:34.298Z,3.70
2023-02-05T15:56:19.949Z,3.40
2023-02-05T15:58:51.243Z,2.80
2023-02-05T16:01:34.972Z,2.90
2023-02-05T16:04:02.485Z,4.70
2023-02-05T16:06:30.229Z,5.20
2023-02-05T16:08:57.478Z,5.10
2023-02-05T16:11:33.190Z,4.90
2023-02-05T16:14:13.510Z,5.73
2023-02-05T16:16:57.057Z,5.90
2023-02-05T16:19:33.268Z,4.37
2023-02-05T16:22:17.412Z,7.50
2023-02-05T16:24:48.840Z,7.07
2023-02-05T16:27:20.993Z,8.83
2023-02-05T16:29:52.410Z,7.77
2023-02-05T16:32:36.822Z,5.90
2023-02-05T16:35:07.321Z,8.03
2023-02-05T16:37:34.487Z,5.10
2023-02-05T16:40:05.936Z,8.97
2023-02-05T16:42:38.180Z,6.03
2023-02-05T16:45:08.058Z,4.80
2023-02-05T16:47:35.547Z,4.97
2023-02-05T16:50:33.876Z,6.20
2023-02-05T16:53:00.754Z,5.30
2023-02-05T16:55:27.408Z,6.20
2023-02-05T16:58:04.947Z,8.40
2023-02-05T17:00:33.746Z,5.37
2023-02-05T17:03:14.004Z,5.90
2023-02-05T17:05:41.020Z,5.60
2023-02-05T17:08:12.132Z,4.40
2023-02-05T17:10:54.364Z,4.33
2023-02-05T17:13:40.338Z,5.27
2023-02-05T17:16:31.624Z,5.20
2023-02-05T17:19:00.419Z,5.27
2023-02-05T17:21:35.065Z,7.53
2023-02-05T17:24:05.888Z,6.30
2023-02-05T17:26:34.973Z,5.97
2023-02-05T17:29:05.303Z,6.70
2023-02-05T17:31:37.368Z,6.40
2023-02-05T17:34:06.401Z,4.50
2023-02-05T17:36:33.219Z,5.57
2023-02-05T17:38:59.950Z,5.30
2023-02-05T17:41:53.947Z,5.77
2023-02-05T17:44:20.717Z,7.17
2023-02-05T17:46:47.442Z,6.97
2023-02-05T17:49:14.244Z,5.00
2023-02-05T17:51:42.409Z,5.30
2023-02-05T17:54:13.268Z,4.70
2023-02-05T17:56:42.001Z,6.37
2023-02-05T17:59:16.162Z,6.60
2023-02-05T18:01:42.970Z,5.63
2023-02-05T18:04:10.361Z,6.70
2023-02-05T18:06:38.435Z,6.90
2023-02-05T18:09:06.104Z,6.77
2023-02-05T18:11:32.871Z,5.73
2023-02-05T18:13:59.535Z,7.50
2023-02-05T18:16:26.641Z,8.80
2023-02-05T18:18:53.403Z,9.87
2023-02-05T18:21:21.504Z,9.63
2023-02-05T18:23:52.643Z,8.40
2023-02-05T18:26:20.029Z,9.43
2023-02-05T18:28:47.349Z,8.77
2023-02-05T18:31:14.887Z,6.00
2023-02-05T18:33:42.209Z,6.20
2023-02-05T18:36:14.429Z,4.80
2023-02-05T18:38:43.435Z,6.20
2023-02-05T18:41:16.101Z,6.70
2023-02-05T18:43:43.112Z,5.07
2023-02-05T18:46:16.077Z,7.03
2023-02-05T18:48:45.476Z,5.00
2023-02-05T18:51:14.772Z,6.00
2023-02-05T18:53:43.100Z,6.20
2023-02-05T18:56:16.755Z,5.60
2023-02-05T18:58:44.750Z,6.70
2023-02-05T19:01:14.069Z,6.10
2023-02-05T19:03:42.002Z,6.67
2023-02-05T19:06:11.090Z,5.37
2023-02-05T19:08:38.075Z,6.70
2023-02-05T19:11:09.298Z,5.60
2023-02-05T19:13:37.243Z,5.40
2023-02-05T19:16:06.487Z,6.67
2023-02-05T19:18:33.696Z,7.20
2023-02-05T19:21:09.232Z,6.10
2023-02-05T19:23:36.906Z,4.20
2023-02-05T19:26:09.898Z,4.67
2023-02-05T19:28:36.908Z,12.63
2023-02-05T19:31:08.899Z,6.07
2023-02-05T19:33:36.940Z,5.40
2023-02-05T19:36:05.294Z,5.13
2023-02-05T19:38:34.643Z,6.27
2023-02-05T19:41:13.057Z,6.10
2023-02-05T19:43:43.138Z,7.47
2023-02-05T19:46:10.100Z,5.83
2023-02-05T19:48:36.798Z,5.80
2023-02-05T19:51:05.003Z,6.90
2023-02-05T19:53:31.919Z,5.60
2023-02-05T19:56:07.600Z,5.67
2023-02-05T19:58:36.469Z,4.10
2023-02-05T20:01:25.372Z,4.87
2023-02-05T20:03:54.866Z,4.97
2023-02-05T20:06:24.493Z,3.90
2023-02-05T20:08:51.893Z,6.00
2023-02-05T20:11:19.292Z,4.80
2023-02-05T20:13:46.766Z,4.17
2023-02-05T20:16:17.534Z,5.30
2023-02-05T20:18:45.266Z,4.83
2023-02-05T20:21:18.730Z,4.33
2023-02-05T20:23:46.756Z,4.57
2023-02-05T20:26:18.703Z,3.70
2023-02-05T20:29:05.844Z,4.00
2023-02-05T20:31:41.194Z,3.67
2023-02-05T20:34:18.392Z,4.87
2023-02-05T20:36:47.560Z,4.50
2023-02-05T20:39:17.066Z,3.67
2023-02-05T20:41:45.605Z,3.50
2023-02-05T20:44:12.352Z,2.93
2023-02-05T20:46:39.072Z,4.73
2023-02-05T20:49:05.970Z,3.30
2023-02-05T20:51:32.634Z,3.57
2023-02-05T20:53:59.589Z,3.60
2023-02-05T20:56:28.301Z,3.10
2023-02-05T20:58:58.220Z,2.40
2023-02-05T21:01:28.295Z,2.73
2023-02-05T21:03:58.325Z,3.80
2023-02-05T21:06:25.920Z,2.40
2023-02-05T21:08:53.889Z,2.50
2023-02-05T21:11:22.161Z,2.70
2023-02-05T21:13:49.572Z,2.50
2023-02-05T21:16:18.926Z,3.47
2023-02-05T21:18:46.648Z,2.60
2023-02-05T21:21:19.488Z,3.47
2023-02-05T21:23:46.513Z,2.90
2023-02-05T21:26:26.021Z,3.03
2023-02-05T21:28:54.968Z,2.73
2023-02-05T21:31:22.050Z,2.80
2023-02-05T21:33:48.916Z,2.63
2023-02-05T21:36:17.572Z,5.10
2023-02-05T21:38:44.569Z,3.47
2023-02-05T21:41:18.709Z,5.20
2023-02-05T21:43:50.422Z,4.13
2023-02-05T21:46:17.941Z,3.57
2023-02-05T21:48:49.308Z,3.93
2023-02-05T21:51:17.509Z,3.93
2023-02-05T21:53:44.749Z,3.97
2023-02-05T21:56:14.344Z,4.20
2023-02-05T21:58:41.586Z,4.30
2023-02-05T22:01:19.736Z,5.50
2023-02-05T22:03:54.844Z,3.60
2023-02-05T22:06:23.428Z,3.40
2023-02-05T22:08:51.456Z,3.70
2023-02-05T22:11:20.298Z,4.50
2023-02-05T22:13:48.829Z,4.47
2023-02-05T22:16:18.808Z,5.87
2023-02-05T22:18:45.521Z,6.57
2023-02-05T22:21:21.021Z,5.40
2023-02-05T22:23:49.483Z,4.83
2023-02-05T22:26:18.603Z,4.97
2023-02-05T22:28:45.534Z,4.80
2023-02-05T22:31:15.601Z,6.50
2023-02-05T22:33:44.709Z,5.37
2023-02-05T22:36:12.998Z,5.80
2023-02-05T22:38:41.206Z,4.53
2023-02-05T22:41:09.731Z,4.80
2023-02-05T22:43:36.768Z,4.03
2023-02-05T22:46:08.260Z,3.83
2023-02-05T22:48:36.559Z,5.60
2023-02-05T22:51:05.402Z,4.60
2023-02-05T22:53:32.723Z,5.00
2023-02-05T22:56:04.207Z,4.63
2023-02-05T22:58:31.392Z,4.73
2023-02-05T23:00:58.787Z,5.00
2023-02-05T23:03:25.744Z,5.03
2023-02-05T23:05:52.866Z,4.70
2023-02-05T23:08:19.519Z,5.97
2023-02-05T23:10:46.206Z,5.90
2023-02-05T23:13:12.873Z,4.30
2023-02-05T23:15:39.654Z,5.00
2023-02-05T23:18:06.823Z,6.80
2023-02-05T23:20:33.563Z,5.53
2023-02-05T23:23:00.205Z,4.90
2023-02-05T23:25:26.865Z,4.97
2023-02-05T23:27:53.577Z,5.73
2023-02-05T23:30:20.381Z,7.43
2023-02-05T23:32:47.110Z,5.07
2023-02-05T23:35:13.789Z,6.40
2023-02-05T23:37:40.416Z,5.80
2023-02-05T23:40:07.668Z,6.00
2023-02-05T23:42:34.321Z,7.33
2023-02-05T23:45:01.061Z,6.80
2023-02-05T23:47:27.704Z,7.23
2023-02-05T23:49:54.503Z,6.63
2023-02-05T23:52:21.136Z,6.07
2023-02-05T23:54:48.244Z,8.17
2023-02-05T23:57:14.927Z,7.33
2023-02-05T23:59:41.572Z,7.40
